Time;durP1;ratioP1;P1;durP2;ratioP2;P2;SDS_P1;SDS_P2;PMS_P1;PMS_P2;Temp;Humidity;BMP_temperature;BMP_pressure;BME280_temperature;BME280_humidity;BME280_pressure;Samples;Min_cycle;Max_cycle;Signal;HPM_P1;HPM_P2
2021/04/17 00:00:03;;;;;;;9.27;7.63;;;7.10;21.40;52.70;160402.00;;;;4912935;29;20446;-81
2021/04/17 00:02:38;;;;;;;10.53;8.33;;;7.00;21.20;8.60;101302.00;;;;4914154;29;21155;-81
2021/04/17 00:05:08;;;;;;;11.10;8.20;;;6.90;22.20;8.50;101292.00;;;;4899353;29;20483;-81
2021/04/17 00:07:36;;;;;;;10.03;7.50;;;6.80;23.50;8.50;101288.00;;;;4905694;29;20489;-82
2021/04/17 00:10:06;;;;;;;14.33;7.77;;;6.70;23.20;8.50;101296.00;;;;4918583;29;20476;-80
2021/04/17 00:12:33;;;;;;;9.23;7.97;;;6.60;23.80;52.70;160285.00;;;;4906939;29;20442;-81
2021/04/17 00:15:01;;;;;;;12.20;7.83;;;6.80;24.30;8.40;101295.00;;;;4922376;29;20473;-86
2021/04/17 00:17:29;;;;;;;13.20;8.87;;;6.70;23.00;8.30;101283.00;;;;4907883;29;20494;-83
2021/04/17 00:19:56;;;;;;;11.10;8.20;;;6.60;24.00;8.30;101290.00;;;;4906491;29;20561;-85
2021/04/17 00:22:24;;;;;;;12.17;8.00;;;6.60;25.10;8.30;101294.00;;;;4901335;29;20537;-81
2021/04/17 00:24:52;;;;;;;11.07;8.07;;;6.50;26.20;8.20;101285.00;;;;4899456;29;20494;-82
2021/04/17 00:27:20;;;;;;;14.43;9.07;;;6.40;26.60;8.20;101290.00;;;;4901714;29;20457;-81
2021/04/17 00:29:47;;;;;;;10.80;9.27;;;6.50;26.90;8.20;101278.00;;;;4920989;29;20475;-85
2021/04/17 00:32:14;;;;;;;19.17;10.43;;;6.40;26.90;8.10;101270.00;;;;4914190;29;20454;-82
2021/04/17 00:34:42;;;;;;;14.53;9.90;;;6.40;27.30;8.10;101272.00;;;;4916079;29;20477;-82
2021/04/17 00:37:10;;;;;;;10.20;8.70;;;6.30;27.60;8.20;101260.00;;;;4936845;29;20935;-82
2021/04/17 00:39:38;;;;;;;13.23;8.97;;;6.30;27.50;8.10;68061.00;;;;4910639;29;20480;-83
2021/04/17 00:42:07;;;;;;;12.97;9.87;;;6.30;27.20;8.10;101263.00;;;;4905295;29;20502;-81
2021/04/17 00:44:36;;;;;;;12.93;10.50;;;6.30;27.50;8.10;101257.00;;;;4901766;29;20534;-82
2021/04/17 00:47:05;;;;;;;10.90;9.80;;;6.30;26.90;8.00;101250.00;;;;4903776;29;20554;-83
2021/04/17 00:49:42;;;;;;;10.63;8.90;;;6.30;26.60;8.10;101248.00;;;;4904635;29;20489;-80
2021/04/17 00:52:11;;;;;;;14.17;8.60;;;6.40;27.30;8.10;101254.00;;;;4914075;29;20457;-81
2021/04/17 00:54:38;;;;;;;9.53;8.40;;;6.50;26.80;8.10;101254.00;;;;4901668;29;20541;-81
2021/04/17 00:57:07;;;;;;;9.30;8.30;;;6.50;26.40;8.10;101264.00;;;;4899843;29;20451;-83
2021/04/17 00:59:34;;;;;;;11.40;8.67;;;6.40;26.60;8.10;101265.00;;;;4891023;29;20557;-82
2021/04/17 01:02:02;;;;;;;11.77;9.10;;;6.40;26.90;8.10;101264.00;;;;4899930;29;20494;-80
2021/04/17 01:04:34;;;;;;;15.57;9.60;;;6.30;27.40;8.10;101258.00;;;;4916137;29;21247;-81
2021/04/17 01:07:08;;;;;;;11.63;9.53;;;6.30;27.90;217.30;160151.00;;;;4914206;29;20474;-81
2021/04/17 01:09:46;;;;;;;13.30;10.10;;;6.20;28.80;8.10;101265.00;;;;4905081;29;20454;-81
2021/04/17 01:12:17;;;;;;;10.93;8.07;;;6.30;28.60;217.30;160119.00;;;;4900508;29;20967;-82
2021/04/17 01:14:48;;;;;;;16.00;8.70;;;6.20;28.80;8.00;68033.00;;;;4892467;29;20541;-82
2021/04/17 01:17:17;;;;;;;10.97;8.10;;;6.40;28.80;8.00;101261.00;;;;4893188;29;20494;-81
2021/04/17 01:20:05;;;;;;;10.43;8.37;;;6.20;28.30;52.70;160103.00;;;;4907747;29;20470;-82
2021/04/17 01:22:34;;;;;;;9.97;8.60;;;6.10;28.60;7.90;101263.00;;;;4902992;29;20470;-81
2021/04/17 01:25:09;;;;;;;9.33;7.90;;;6.10;28.20;52.70;160085.00;;;;4911265;29;20478;-80
2021/04/17 01:27:38;;;;;;;11.87;8.53;;;6.10;28.00;7.90;101264.00;;;;4922322;29;20473;-82
2021/04/17 01:30:12;;;;;;;11.83;8.70;;;6.10;28.40;7.90;101267.00;;;;4917041;29;20601;-83
2021/04/17 01:32:41;;;;;;;9.93;8.53;;;6.10;28.40;7.90;101272.00;;;;4900738;29;20482;-82
2021/04/17 01:35:15;;;;;;;8.90;7.53;;;6.20;28.00;7.90;101265.00;;;;4918293;29;20474;-81
2021/04/17 01:38:06;;;;;;;10.97;9.07;;;6.20;28.10;7.90;101270.00;;;;4924151;29;20466;-82
2021/04/17 01:40:34;;;;;;;9.70;8.70;;;6.20;28.80;52.70;160091.00;;;;4936975;29;20513;-82
2021/04/17 01:43:03;;;;;;;9.00;7.87;;;6.20;29.10;8.00;101246.00;;;;4915871;29;20523;-82
2021/04/17 01:45:33;;;;;;;9.80;7.77;;;6.20;29.90;8.00;101248.00;;;;4924535;29;20471;-82
2021/04/17 01:48:02;;;;;;;8.63;7.73;;;6.20;29.40;8.00;101248.00;;;;4905497;29;20490;-82
2021/04/17 01:50:31;;;;;;;12.23;8.33;;;6.20;29.50;8.00;101246.00;;;;4908875;29;20451;-81
2021/04/17 01:53:02;;;;;;;9.87;7.83;;;6.20;29.70;8.00;101252.00;;;;4909029;29;20545;-80
2021/04/17 01:55:35;;;;;;;10.50;8.97;;;6.20;30.00;8.00;101243.00;;;;4907715;29;20472;-84
2021/04/17 01:58:05;;;;;;;11.03;7.90;;;6.10;30.10;8.00;101245.00;;;;4910263;29;20893;-81
2021/04/17 02:00:34;;;;;;;10.70;7.50;;;6.10;30.20;8.00;101241.00;;;;4910585;29;20569;-84
2021/04/17 02:03:04;;;;;;;9.60;8.10;;;6.10;30.10;8.00;101250.00;;;;4899156;29;20955;-83
2021/04/17 02:05:32;;;;;;;11.17;7.57;;;6.20;29.90;8.10;101232.00;;;;4892555;29;21001;-81
2021/04/17 02:08:00;;;;;;;9.83;7.80;;;6.20;29.20;8.10;101232.00;;;;4894317;29;20482;-83
2021/04/17 02:10:27;;;;;;;11.33;7.73;;;6.10;29.80;8.00;101239.00;;;;4908387;29;20540;-82
2021/04/17 02:12:55;;;;;;;10.97;8.17;;;6.10;30.60;8.10;101233.00;;;;4909652;29;20450;-82
2021/04/17 02:15:23;;;;;;;14.07;9.33;;;6.10;30.70;8.10;101236.00;;;;4910453;29;20474;-81
2021/04/17 02:17:55;;;;;;;8.97;8.07;;;6.20;30.90;8.10;101238.00;;;;4913586;29;20478;-83
2021/04/17 02:20:34;;;;;;;8.50;7.27;;;6.10;31.40;8.10;101230.00;;;;4915047;29;20475;-82
2021/04/17 02:23:02;;;;;;;10.57;8.03;;;6.20;30.80;8.00;101242.00;;;;4913205;29;20549;-81
2021/04/17 02:25:29;;;;;;;11.57;8.70;;;6.20;29.90;8.00;101228.00;;;;4915384;29;20497;-83
2021/04/17 02:27:57;;;;;;;9.00;7.80;;;6.20;29.80;8.00;101235.00;;;;4920775;29;20518;-81
2021/04/17 02:30:25;;;;;;;10.60;8.47;;;6.20;28.80;8.00;101237.00;;;;4920815;29;20478;-83
2021/04/17 02:32:57;;;;;;;9.57;7.50;;;6.20;29.10;8.10;101228.00;;;;4921430;29;20473;-84
2021/04/17 02:35:24;;;;;;;10.90;8.43;;;6.20;29.30;217.30;160139.00;;;;4920039;29;20497;-83
2021/04/17 02:37:52;;;;;;;10.40;8.87;;;6.20;28.80;8.10;101234.00;;;;4906416;29;20457;-82
2021/04/17 02:40:20;;;;;;;10.33;8.53;;;6.20;28.80;8.00;101228.00;;;;4910570;29;20478;-83
2021/04/17 02:42:47;;;;;;;11.90;8.80;;;6.20;29.30;8.00;101227.00;;;;4903960;29;20531;-82
2021/04/17 02:45:15;;;;;;;14.50;9.53;;;6.20;29.10;8.10;101217.00;;;;4913761;29;20490;-85
2021/04/17 02:47:44;;;;;;;10.63;8.27;;;6.20;29.20;8.00;101226.00;;;;4911866;29;20944;-83
2021/04/17 02:50:12;;;;;;;9.33;7.10;;;6.20;29.10;8.00;68025.00;;;;4903724;29;20463;-83
2021/04/17 02:52:40;;;;;;;9.37;8.03;;;6.20;28.80;52.70;160135.00;;;;4914249;29;20533;-82
2021/04/17 02:55:09;;;;;;;10.23;7.57;;;6.20;28.80;8.00;101225.00;;;;4897900;29;20511;-82
2021/04/17 02:57:38;;;;;;;9.70;8.50;;;6.10;28.80;8.00;101210.00;;;;4886767;29;20587;-82
2021/04/17 03:00:10;;;;;;;9.10;7.77;;;6.30;28.90;7.90;101220.00;;;;4882258;29;20458;-83
2021/04/17 03:02:37;;;;;;;9.13;7.80;;;6.20;29.30;7.90;101211.00;;;;4902995;29;20505;-82
2021/04/17 03:05:08;;;;;;;9.53;8.10;;;6.10;29.80;7.90;101228.00;;;;4915401;29;20854;-82
2021/04/17 03:07:35;;;;;;;8.87;7.97;;;6.00;29.20;7.70;67954.00;;;;4904448;29;20561;-82
2021/04/17 03:10:06;;;;;;;10.27;7.90;;;6.10;27.30;7.70;67960.00;;;;4902432;29;20466;-83
2021/04/17 03:12:33;;;;;;;8.40;7.30;;;6.10;25.00;7.60;101206.00;;;;4911037;29;20589;-81
2021/04/17 03:15:01;;;;;;;8.40;6.50;;;6.20;23.70;7.60;101199.00;;;;4903283;29;20482;-81
2021/04/17 03:17:28;;;;;;;8.13;6.67;;;6.20;22.70;7.60;101203.00;;;;4903812;29;20454;-83
2021/04/17 03:19:56;;;;;;;9.10;6.53;;;6.20;23.30;52.70;159925.00;;;;4907653;29;20492;-82
2021/04/17 03:22:24;;;;;;;9.20;6.73;;;6.10;22.60;7.50;101209.00;;;;4908543;29;20485;-82
2021/04/17 03:24:52;;;;;;;8.73;7.00;;;6.20;22.00;7.50;101188.00;;;;4891009;29;20472;-81
2021/04/17 03:27:20;;;;;;;8.33;6.93;;;6.20;21.60;7.50;101199.00;;;;4927684;29;20451;-83
2021/04/17 03:29:47;;;;;;;11.00;6.13;;;6.20;22.00;7.50;101184.00;;;;4915596;29;20486;-80
2021/04/17 03:32:15;;;;;;;7.57;6.27;;;6.20;21.50;7.50;101184.00;;;;4911105;29;20558;-82
2021/04/17 03:34:42;;;;;;;8.57;6.07;;;6.10;21.30;7.40;101186.00;;;;4929084;29;20522;-85
2021/04/17 03:37:10;;;;;;;7.87;5.67;;;6.10;20.70;7.40;67891.00;;;;4927903;29;20472;-84
2021/04/17 03:39:38;;;;;;;7.07;6.13;;;6.10;21.20;7.30;101192.00;;;;4899249;29;20489;-83
2021/04/17 03:42:07;;;;;;;7.20;6.10;;;6.00;21.30;7.30;101204.00;;;;4900237;29;20482;-82
2021/04/17 03:44:34;;;;;;;6.47;5.40;;;6.00;21.20;7.20;101199.00;;;;4901889;29;20987;-83
2021/04/17 03:47:02;;;;;;;5.77;5.17;;;5.90;20.90;7.20;101201.00;;;;4906467;29;20450;-81
2021/04/17 03:49:29;;;;;;;7.40;5.80;;;5.80;21.50;7.10;67837.00;;;;4901523;29;20486;-81
2021/04/17 03:51:57;;;;;;;7.40;5.30;;;5.80;21.50;7.00;67815.00;;;;4899721;29;20494;-82
2021/04/17 03:54:24;;;;;;;5.57;4.90;;;5.80;20.50;7.00;101193.00;;;;4921448;29;20519;-86
2021/04/17 03:56:52;;;;;;;5.80;5.13;;;5.70;20.40;6.90;101185.00;;;;4933291;29;20537;-84
2021/04/17 03:59:20;;;;;;;6.50;5.17;;;5.70;20.10;6.80;101189.00;;;;4906463;29;20462;-81
2021/04/17 04:01:47;;;;;;;6.70;5.30;;;5.70;20.10;6.80;101202.00;;;;4899264;29;20475;-81
2021/04/17 04:04:15;;;;;;;6.60;5.50;;;5.60;19.70;6.80;101192.00;;;;4916837;29;20482;-84
2021/04/17 04:06:42;;;;;;;7.50;5.00;;;5.60;19.80;6.70;101215.00;;;;4906355;29;20467;-85
2021/04/17 04:09:10;;;;;;;6.77;4.50;;;5.60;19.70;6.70;101203.00;;;;4893143;29;20565;-82
2021/04/17 04:11:37;;;;;;;7.10;5.27;;;5.50;19.40;6.60;101201.00;;;;4907266;29;20501;-82
2021/04/17 04:14:06;;;;;;;6.10;4.50;;;5.60;19.20;6.60;67720.00;;;;4900257;29;20878;-82
2021/04/17 04:16:33;;;;;;;8.10;4.90;;;5.50;19.30;6.60;100783.00;;;;4904580;29;20537;-82
2021/04/17 04:19:01;;;;;;;6.40;4.77;;;5.50;19.60;6.50;101211.00;;;;4895402;29;20501;-83
2021/04/17 04:21:28;;;;;;;10.07;5.27;;;5.40;19.40;6.50;101214.00;;;;4906922;29;20658;-82
2021/04/17 04:23:55;;;;;;;6.03;5.00;;;5.40;19.50;6.50;101215.00;;;;4882640;29;20503;-82
2021/04/17 04:26:23;;;;;;;6.57;5.03;;;5.40;19.90;6.50;101201.00;;;;4911032;29;20451;-83
2021/04/17 04:28:50;;;;;;;5.40;4.43;;;5.30;20.20;6.40;101212.00;;;;4898147;29;21020;-82
2021/04/17 04:31:18;;;;;;;5.73;4.60;;;5.30;20.00;52.70;159443.00;;;;4897677;29;20489;-84
2021/04/17 04:33:46;;;;;;;7.63;5.00;;;5.30;20.00;6.40;101219.00;;;;4897115;29;20497;-83
2021/04/17 04:36:13;;;;;;;9.23;4.40;;;5.20;20.20;6.40;101214.00;;;;4898058;29;21010;-83
2021/04/17 04:38:41;;;;;;;5.57;4.50;;;5.20;20.70;6.30;101214.00;;;;4897999;29;20459;-83
2021/04/17 04:41:08;;;;;;;6.40;5.00;;;5.20;20.50;6.40;101231.00;;;;4918815;29;20506;-85
2021/04/17 04:43:36;;;;;;;6.80;5.43;;;5.10;20.90;6.30;101216.00;;;;4921781;29;20490;-84
2021/04/17 04:46:03;;;;;;;9.80;5.30;;;5.20;21.00;6.30;101215.00;;;;4921938;29;20465;-86
2021/04/17 04:48:31;;;;;;;7.83;4.70;;;5.10;21.10;6.30;101222.00;;;;4924355;29;20443;-86
2021/04/17 04:51:00;;;;;;;13.23;5.00;;;5.10;20.90;6.30;101220.00;;;;4924161;29;20486;-83
2021/04/17 04:53:27;;;;;;;6.03;4.50;;;5.10;21.10;6.40;100890.00;;;;4910860;29;20541;-82
2021/04/17 04:55:54;;;;;;;5.20;4.70;;;5.10;20.60;6.40;101209.00;;;;4912182;29;20478;-88
2021/04/17 04:58:22;;;;;;;4.93;4.17;;;5.20;20.20;6.40;101219.00;;;;4910041;29;20462;-83
2021/04/17 05:00:49;;;;;;;7.63;4.50;;;5.20;20.20;6.40;101208.00;;;;4923375;29;20445;-83
2021/04/17 05:03:17;;;;;;;10.33;5.40;;;5.20;19.70;6.50;101210.00;;;;4934129;29;20473;-83
2021/04/17 05:05:45;;;;;;;5.40;4.80;;;5.30;19.60;6.50;101213.00;;;;4907110;29;20483;-81
2021/04/17 05:08:12;;;;;;;5.23;4.50;;;5.30;19.40;6.50;101205.00;;;;4902952;29;21322;-81
2021/04/17 05:10:40;;;;;;;6.73;4.70;;;5.30;19.00;6.50;101205.00;;;;4910405;29;20538;-82
2021/04/17 05:13:07;;;;;;;5.87;4.63;;;5.40;18.70;6.60;101211.00;;;;4900759;29;20482;-83
2021/04/17 05:15:35;;;;;;;6.93;5.00;;;5.40;18.40;6.60;101226.00;;;;4909332;29;20481;-81
2021/04/17 05:18:02;;;;;;;6.33;4.33;;;5.40;18.30;6.60;67720.00;;;;4908190;29;20458;-83
2021/04/17 05:20:30;;;;;;;6.10;4.30;;;5.40;18.20;6.60;101210.00;;;;4922849;29;20972;-81
2021/04/17 05:22:58;;;;;;;5.40;4.40;;;5.40;18.00;6.60;101221.00;;;;4908792;29;20474;-86
2021/04/17 05:25:26;;;;;;;4.87;3.93;;;5.40;17.60;6.60;101227.00;;;;4910948;29;20488;-81
2021/04/17 05:27:53;;;;;;;5.90;4.47;;;5.40;17.30;217.30;159514.00;;;;4903900;29;20474;-83
2021/04/17 05:30:22;;;;;;;4.20;3.70;;;5.40;17.20;6.70;101221.00;;;;4906351;29;20514;-82
2021/04/17 05:32:50;;;;;;;8.63;4.00;;;5.50;17.20;6.70;101219.00;;;;4906570;29;20543;-82
2021/04/17 05:35:19;;;;;;;5.37;3.80;;;5.50;16.20;6.80;101231.00;;;;4908049;29;20470;-81
2021/04/17 05:37:47;;;;;;;5.27;4.20;;;5.60;15.80;6.90;101228.00;;;;4913808;29;20463;-81
2021/04/17 05:40:16;;;;;;;4.60;3.90;;;5.70;15.40;6.90;101222.00;;;;4921327;29;20530;-81
2021/04/17 05:42:47;;;;;;;6.17;3.97;;;5.70;15.20;7.00;101225.00;;;;4902103;29;20510;-80
2021/04/17 05:45:14;;;;;;;7.47;3.90;;;5.70;15.00;7.00;101230.00;;;;4911168;29;20529;-83
2021/04/17 05:47:42;;;;;;;5.80;3.60;;;5.80;14.20;7.00;101212.00;;;;4914036;29;20502;-80
2021/04/17 05:50:11;;;;;;;7.07;4.20;;;5.90;13.70;7.20;101233.00;;;;4898014;29;20980;-84
2021/04/17 05:52:39;;;;;;;7.33;3.30;;;6.10;13.30;7.40;101238.00;;;;4901254;29;20464;-81
2021/04/17 05:55:09;;;;;;;5.87;3.40;;;6.20;11.80;7.50;101224.00;;;;4905852;29;21055;-82
2021/04/17 05:57:38;;;;;;;6.30;4.03;;;6.30;11.40;7.50;67919.00;;;;4916486;29;20466;-82
2021/04/17 06:00:09;;;;;;;4.47;3.80;;;6.40;11.60;7.50;101229.00;;;;4917778;29;20489;-82
2021/04/17 06:02:37;;;;;;;4.70;4.20;;;6.40;10.90;7.70;101232.00;;;;4900951;29;20527;-82
2021/04/17 06:05:06;;;;;;;4.20;3.50;;;6.50;10.50;7.70;101219.00;;;;4910001;29;20581;-82
2021/04/17 06:07:34;;;;;;;4.83;3.40;;;6.60;9.80;7.80;101213.00;;;;4912151;29;20470;-81
2021/04/17 06:10:01;;;;;;;6.93;3.90;;;6.70;9.30;8.00;101224.00;;;;4916121;29;20462;-81
2021/04/17 06:12:28;;;;;;;5.77;3.60;;;6.80;7.90;8.10;101234.00;;;;4905966;29;20522;-82
2021/04/17 06:14:56;;;;;;;4.97;3.23;;;6.90;8.50;8.10;101232.00;;;;4898272;29;21008;-82
2021/04/17 06:17:24;;;;;;;5.63;3.60;;;7.00;7.00;8.20;101228.00;;;;4902731;29;20506;-82
2021/04/17 06:19:52;;;;;;;4.53;3.60;;;7.00;6.70;8.20;101225.00;;;;4903469;29;20450;-82
2021/04/17 06:22:20;;;;;;;4.03;3.30;;;7.00;6.50;8.30;101223.00;;;;4903355;29;20481;-82
2021/04/17 06:24:47;;;;;;;7.50;4.27;;;7.10;6.30;8.50;101220.00;;;;4902727;29;20532;-82
2021/04/17 06:27:14;;;;;;;7.23;4.07;;;7.20;6.00;8.50;101226.00;;;;4904067;29;20454;-83
2021/04/17 06:29:42;;;;;;;5.20;4.10;;;7.30;5.20;8.40;101227.00;;;;4902629;29;20494;-82
2021/04/17 06:32:10;;;;;;;4.47;3.30;;;7.30;5.00;8.40;101226.00;;;;4916851;29;20495;-83
2021/04/17 06:34:38;;;;;;;5.67;3.63;;;7.30;4.60;8.50;101225.00;;;;4901692;29;20533;-83
2021/04/17 06:37:06;;;;;;;5.87;3.20;;;7.40;4.80;8.50;101226.00;;;;4898025;29;20517;-83
2021/04/17 06:39:33;;;;;;;4.23;3.40;;;7.50;4.20;8.80;101225.00;;;;4905517;29;20592;-83
2021/04/17 06:42:07;;;;;;;7.53;3.90;;;7.60;4.30;8.80;101232.00;;;;4903999;29;20522;-82
2021/04/17 06:44:37;;;;;;;5.90;3.83;;;7.70;3.30;9.10;101232.00;;;;4919852;29;20745;-81
2021/04/17 06:47:04;;;;;;;4.50;3.33;;;7.90;3.10;9.10;101220.00;;;;4925382;29;20455;-82
2021/04/17 06:49:33;;;;;;;5.10;3.33;;;8.00;2.40;9.20;101225.00;;;;4932636;29;20544;-84
2021/04/17 06:52:02;;;;;;;3.50;2.47;;;8.10;2.00;9.40;68332.00;;;;4921562;29;20446;-86
2021/04/17 06:54:30;;;;;;;4.50;3.40;;;8.20;1.60;9.30;101228.00;;;;4935540;29;20466;-86
2021/04/17 06:56:58;;;;;;;5.63;4.00;;;8.20;1.20;9.60;101224.00;;;;4907139;29;20881;-83
2021/04/17 06:59:26;;;;;;;4.90;2.87;;;8.40;1.00;9.80;101227.00;;;;4904890;29;20455;-83
2021/04/17 07:01:54;;;;;;;5.90;4.17;;;8.50;1.00;10.20;101218.00;;;;4911744;29;20498;-82
2021/04/17 07:04:22;;;;;;;4.40;3.27;;;8.70;1.00;10.20;101224.00;;;;4913934;29;21004;-83
2021/04/17 07:06:50;;;;;;;6.50;3.23;;;8.90;1.00;10.30;101222.00;;;;4921667;29;20478;-80
2021/04/17 07:09:17;;;;;;;4.93;3.77;;;8.90;1.00;10.10;101222.00;;;;4907080;29;20470;-82
2021/04/17 07:11:45;;;;;;;4.90;3.30;;;8.90;1.00;10.30;101220.00;;;;4922411;29;20474;-81
2021/04/17 07:14:15;;;;;;;5.60;3.47;;;8.90;1.00;10.40;101218.00;;;;4917102;29;20545;-82
2021/04/17 07:17:00;;;;;;;4.93;2.73;;;9.00;1.00;10.30;101054.00;;;;4916775;29;20486;-82
2021/04/17 07:19:48;;;;;;;4.80;3.50;;;9.00;1.00;217.30;161039.00;;;;4931349;29;20454;-85
2021/04/17 07:22:20;;;;;;;4.33;2.70;;;8.80;1.00;9.90;101218.00;;;;4913781;29;20556;-83
2021/04/17 07:24:49;;;;;;;3.87;3.47;;;8.70;1.00;217.30;160982.00;;;;4908050;29;20920;-83
2021/04/17 07:27:37;;;;;;;8.27;3.90;;;8.70;1.00;10.30;101224.00;;;;4916984;29;20838;-82
2021/04/17 07:30:25;;;;;;;4.33;2.80;;;8.80;1.00;10.30;101229.00;;;;4911140;29;20473;-82
2021/04/17 07:33:14;;;;;;;4.40;3.63;;;8.90;1.00;10.20;101230.00;;;;4914546;29;20465;-82
2021/04/17 07:35:46;;;;;;;4.33;3.93;;;8.90;1.00;10.50;101217.00;;;;4933300;29;20453;-82
2021/04/17 07:38:17;;;;;;;6.37;3.90;;;9.00;1.00;10.50;101223.00;;;;4924609;29;20446;-81
2021/04/17 07:40:47;;;;;;;6.50;4.47;;;9.10;1.00;10.70;101224.00;;;;4908960;29;20509;-83
2021/04/17 07:43:17;;;;;;;4.40;3.60;;;9.30;1.00;11.00;101229.00;;;;4909450;29;20486;-81
2021/04/17 07:45:45;;;;;;;5.70;3.60;;;9.50;1.00;10.80;101211.00;;;;4924258;29;20498;-82
2021/04/17 07:48:25;;;;;;;3.50;2.93;;;9.40;1.00;10.70;101223.00;;;;4919406;29;20457;-81
2021/04/17 07:50:54;;;;;;;7.40;4.33;;;9.30;1.00;10.80;101226.00;;;;4931116;29;20512;-82
2021/04/17 07:53:29;;;;;;;6.37;3.67;;;9.30;1.00;217.30;161348.00;;;;4918909;29;20459;-81
2021/04/17 07:55:59;;;;;;;6.43;3.50;;;9.30;1.00;10.80;101217.00;;;;4918062;29;20932;-83
2021/04/17 07:58:26;;;;;;;7.43;3.90;;;9.30;1.00;10.60;101156.00;;;;4915579;29;20471;-84
2021/04/17 08:00:54;;;;;;;5.10;3.70;;;9.30;1.00;10.80;68651.00;;;;4908643;29;20463;-83
2021/04/17 08:03:24;;;;;;;7.10;3.90;;;9.40;1.00;10.80;101221.00;;;;4910167;29;20486;-87
2021/04/17 08:05:52;;;;;;;4.50;3.80;;;9.50;1.00;10.80;101225.00;;;;4909426;29;21019;-84
2021/04/17 08:08:19;;;;;;;5.43;3.77;;;9.60;1.00;10.80;101224.00;;;;4907555;29;20459;-84
2021/04/17 08:10:48;;;;;;;5.23;3.30;;;9.60;1.00;217.30;161206.00;;;;4917406;29;20518;-83
2021/04/17 08:13:18;;;;;;;6.00;3.37;;;9.50;1.00;52.70;161194.00;;;;4917066;29;20467;-84
2021/04/17 08:15:45;;;;;;;4.10;2.90;;;9.40;1.00;10.60;68608.00;;;;4903471;29;20462;-83
2021/04/17 08:18:13;;;;;;;5.40;3.53;;;9.50;1.00;52.70;161257.00;;;;4925857;29;20498;-88
2021/04/17 08:20:41;;;;;;;8.30;3.73;;;9.60;1.00;217.30;161289.00;;;;4914520;29;20449;-88
2021/04/17 08:23:09;;;;;;;6.80;3.33;;;9.70;1.00;10.60;101217.00;;;;4917887;29;20518;-87
2021/04/17 08:25:37;;;;;;;5.77;3.63;;;9.70;1.00;217.30;161247.00;;;;4922095;29;20463;-85
2021/04/17 08:28:18;;;;;;;7.47;3.30;;;9.70;1.00;217.30;161134.00;;;;4910987;29;20458;-84
2021/04/17 08:30:45;;;;;;;5.30;2.77;;;9.50;1.00;10.30;101226.00;;;;4923003;29;20446;-82
2021/04/17 08:33:14;;;;;;;8.27;3.80;;;9.50;1.00;10.50;101220.00;;;;4908699;29;20810;-84
2021/04/17 08:35:43;;;;;;;3.40;2.60;;;9.60;1.00;10.70;101217.00;;;;4926448;29;20637;-84
2021/04/17 08:38:12;;;;;;;6.30;3.60;;;9.70;1.00;10.70;101220.00;;;;4925282;29;20480;-82
2021/04/17 08:40:49;;;;;;;4.43;2.93;;;9.80;1.00;10.50;101214.00;;;;4913881;29;20518;-83
2021/04/17 08:43:33;;;;;;;4.63;3.27;;;9.70;1.00;11.00;101219.00;;;;4916768;29;21049;-83
2021/04/17 08:46:07;;;;;;;5.63;3.00;;;9.90;1.00;10.80;68640.00;;;;4911374;29;20454;-86
2021/04/17 08:48:51;;;;;;;5.10;3.30;;;9.90;1.00;11.00;68689.00;;;;4912618;29;20453;-86
2021/04/17 08:51:46;;;;;;;7.30;3.30;;;9.90;1.00;11.20;101219.00;;;;4926547;29;20454;-86
2021/04/17 08:54:26;;;;;;;4.60;2.90;;;10.00;1.00;11.20;101209.00;;;;4915032;29;20466;-84
2021/04/17 08:57:01;;;;;;;5.37;3.60;;;10.20;1.00;11.50;101214.00;;;;4909261;29;20540;-83
2021/04/17 08:59:33;;;;;;;6.00;4.20;;;10.40;1.00;11.80;101212.00;;;;4930098;29;20466;-82
2021/04/17 09:02:06;;;;;;;7.10;3.80;;;10.70;1.00;12.00;101216.00;;;;4912872;29;20537;-85
2021/04/17 09:04:37;;;;;;;6.43;3.97;;;10.90;1.00;12.30;101216.00;;;;4918787;29;20502;-84
2021/04/17 09:07:16;;;;;;;4.20;2.80;;;11.10;1.00;217.30;161938.00;;;;4917541;29;20470;-82
2021/04/17 09:09:43;;;;;;;4.90;2.80;;;11.10;1.00;12.10;101209.00;;;;4909260;29;20458;-84
2021/04/17 09:12:21;;;;;;;5.30;3.40;;;11.00;1.00;12.30;101199.00;;;;4909594;29;20502;-83
2021/04/17 09:15:05;;;;;;;5.40;2.87;;;11.20;1.00;12.20;101195.00;;;;4904467;29;20518;-83
2021/04/17 09:17:47;;;;;;;5.50;3.07;;;11.20;1.00;12.50;101216.00;;;;4926327;29;20545;-82
2021/04/17 09:20:39;;;;;;;4.60;2.77;;;11.30;1.00;12.30;101207.00;;;;4929614;29;20452;-85
2021/04/17 09:23:07;;;;;;;6.60;3.27;;;11.30;1.00;12.20;101212.00;;;;4918822;29;20577;-88
2021/04/17 09:25:53;;;;;;;8.53;2.80;;;11.10;1.00;12.40;101193.00;;;;4918639;29;20477;-85
2021/04/17 09:28:21;;;;;;;8.80;3.57;;;11.20;1.00;12.60;101211.00;;;;4912100;29;20462;-85
2021/04/17 09:30:52;;;;;;;4.10;2.70;;;11.40;1.00;12.40;68999.00;;;;4926351;29;20486;-84
2021/04/17 09:33:25;;;;;;;7.00;3.20;;;11.20;1.00;12.30;101141.00;;;;4904285;29;21671;-84
2021/04/17 09:35:53;;;;;;;5.10;2.97;;;11.20;1.00;217.30;162174.00;;;;4894122;29;20515;-84
2021/04/17 09:38:35;;;;;;;6.33;3.30;;;11.60;1.00;217.30;162136.00;;;;4893536;29;20469;-85
2021/04/17 09:41:04;;;;;;;3.40;2.67;;;11.40;1.00;217.30;162126.00;;;;4892302;29;20525;-84
2021/04/17 09:43:35;;;;;;;6.27;3.30;;;11.40;1.00;217.30;162098.00;;;;4907447;29;21010;-83
2021/04/17 09:46:06;;;;;;;6.03;2.80;;;11.30;1.00;52.70;162158.00;;;;4894069;29;20511;-84
2021/04/17 09:48:39;;;;;;;3.87;2.87;;;11.40;1.00;12.90;101169.00;;;;4897871;29;20462;-84
2021/04/17 09:51:19;;;;;;;2.90;1.97;;;11.70;1.00;13.00;69141.00;;;;4913196;29;20462;-85
2021/04/17 09:53:50;;;;;;;6.17;2.77;;;11.80;1.00;13.40;101175.00;;;;4920701;29;20492;-85
2021/04/17 09:56:27;;;;;;;4.63;3.00;;;11.80;1.00;13.40;101183.00;;;;4906110;29;20457;-83
2021/04/17 09:58:58;;;;;;;3.77;2.60;;;11.90;1.00;13.50;101158.00;;;;4909830;29;20533;-80
2021/04/17 10:01:26;;;;;;;5.30;2.57;;;11.90;1.00;13.50;101162.00;;;;4910430;29;20848;-83
2021/04/17 10:03:57;;;;;;;3.63;2.27;;;12.10;1.00;13.40;101162.00;;;;4906422;29;20478;-83
2021/04/17 10:06:30;;;;;;;3.70;2.90;;;11.90;1.00;13.50;101161.00;;;;4904103;29;20976;-81
2021/04/17 10:09:11;;;;;;;3.30;2.47;;;12.10;1.00;13.20;101160.00;;;;4903304;29;20506;-80
2021/04/17 10:11:42;;;;;;;3.60;2.43;;;12.00;1.00;13.30;101166.00;;;;4904830;29;20528;-80
2021/04/17 10:14:12;;;;;;;4.17;2.43;;;12.00;1.00;13.80;101159.00;;;;4904560;29;20999;-83
2021/04/17 10:16:44;;;;;;;7.10;2.40;;;12.30;1.00;14.00;101161.00;;;;4903581;29;20812;-82
2021/04/17 10:19:14;;;;;;;5.07;3.17;;;12.60;1.00;14.40;69467.00;;;;4903540;29;20553;-80
2021/04/17 10:21:45;;;;;;;5.97;2.73;;;12.90;1.00;14.80;101151.00;;;;4890118;29;20534;-80
2021/04/17 10:24:27;;;;;;;4.43;2.40;;;13.00;1.00;14.90;101150.00;;;;4904160;29;20617;-81
2021/04/17 10:27:05;;;;;;;8.43;2.93;;;13.30;1.00;15.00;101163.00;;;;4902826;29;20539;-84
2021/04/17 10:29:39;;;;;;;2.87;2.40;;;13.40;1.00;14.60;101148.00;;;;4914743;29;20446;-80
2021/04/17 10:32:12;;;;;;;4.27;3.50;;;13.00;1.00;14.80;101137.00;;;;4903387;29;20517;-85
2021/04/17 10:34:42;;;;;;;4.90;2.80;;;13.20;1.00;14.60;101160.00;;;;4901875;29;20474;-84
2021/04/17 10:37:13;;;;;;;5.90;3.40;;;13.20;1.00;15.00;101156.00;;;;4904021;29;20971;-82
2021/04/17 10:39:59;;;;;;;5.73;3.40;;;13.40;1.00;217.30;163169.00;;;;4912774;29;20462;-82
2021/04/17 10:42:42;;;;;;;6.00;2.90;;;13.50;1.00;14.90;101160.00;;;;4899831;29;20586;-83
2021/04/17 10:45:11;;;;;;;5.40;2.30;;;13.60;1.00;15.00;69590.00;;;;4925631;29;20506;-83
2021/04/17 10:47:40;;;;;;;4.73;2.77;;;13.30;1.00;14.90;101152.00;;;;4916319;29;20454;-86
2021/04/17 10:50:20;;;;;;;4.43;2.77;;;13.30;1.00;217.30;163082.00;;;;4904275;29;20474;-85
2021/04/17 10:53:02;;;;;;;3.53;2.80;;;13.10;1.00;14.90;101139.00;;;;4902551;29;20527;-84
2021/04/17 10:55:34;;;;;;;3.97;2.13;;;13.20;1.00;14.70;101149.00;;;;4914940;29;20760;-85
2021/04/17 10:58:05;;;;;;;4.73;2.93;;;13.00;1.00;15.00;101146.00;;;;4905860;29;20472;-82
2021/04/17 11:00:35;;;;;;;4.13;2.03;;;13.20;1.00;15.10;101146.00;;;;4896388;29;20459;-83
2021/04/17 11:03:09;;;;;;;3.67;2.37;;;13.20;1.00;14.80;101142.00;;;;4911739;29;20538;-82
2021/04/17 11:05:37;;;;;;;3.83;2.07;;;13.20;1.00;14.70;101133.00;;;;4901011;29;20633;-84
2021/04/17 11:08:07;;;;;;;5.37;2.63;;;12.90;1.00;14.90;101119.00;;;;4906745;29;20465;-83
2021/04/17 11:10:38;;;;;;;2.57;2.10;;;13.20;1.00;14.70;101131.00;;;;4907666;29;20473;-85
2021/04/17 11:13:06;;;;;;;3.90;2.20;;;12.90;1.00;14.70;101140.00;;;;4898244;29;21024;-84